Andacollo, Argentina
Current Conditions -  °F | °C
As of 5:00 PM on Thursday 27 Nov 2014 (Local Time) from SCIC Reporting Station
Clear Clear  
Wind Chill: 75°   Ceiling: Unl
Heat Index: 75°   Visibility: 6mi
Dew Point: 54°   Wind: 13mph
Humidity: 47%   Direction: 270°W
Pressure: 29.97"   Gusts: NA
Location:  37.05°S, 70.07°W
Report Text: SCIC 272000Z 27011KT CAVOK 24/12 Q1015
Loading
Personal Weather Stations






























Interactive Weather Map New forecast layout! Learn more

10-Day Weather Forecast

Advertisements
Track Severe Weather on mobile